Time;durP1;ratioP1;P1;durP2;ratioP2;P2;SDS_P1;SDS_P2;PMS_P1;PMS_P2;Temp;Humidity;BMP_temperature;BMP_pressure;BME280_temperature;BME280_humidity;BME280_pressure;Samples;Min_cycle;Max_cycle;Signal;HPM_P1;HPM_P2
2021/06/01 00:02:17;;;;;;;2.80;1.80;;;;;;;19.73;22.72;101478.69;3532370;40;20300;-83
2021/06/01 00:04:45;;;;;;;2.95;1.63;;;;;;;19.70;22.86;101481.81;3541486;40;20043;-81
2021/06/01 00:07:13;;;;;;;2.75;1.75;;;;;;;19.67;22.25;101481.31;3541273;40;20039;-79
2021/06/01 00:09:41;;;;;;;3.88;1.85;;;;;;;19.64;22.27;101478.88;3541320;40;20038;-81
2021/06/01 00:12:10;;;;;;;2.58;1.63;;;;;;;19.61;22.26;101485.63;3541182;40;20034;-80
2021/06/01 00:14:38;;;;;;;2.63;1.75;;;;;;;19.56;22.32;101477.00;3532302;40;20295;-82
2021/06/01 00:17:06;;;;;;;2.67;1.70;;;;;;;19.52;22.30;101484.78;3540784;40;20395;-82
2021/06/01 00:19:34;;;;;;;4.03;1.88;;;;;;;19.50;22.98;101483.22;3540816;40;20031;-83
2021/06/01 00:22:01;;;;;;;3.53;1.85;;;;;;;19.47;22.53;101478.00;3541756;40;20033;-82
2021/06/01 00:24:29;;;;;;;3.00;1.80;;;;;;;19.43;22.89;101477.47;3540874;40;20031;-81
2021/06/01 00:26:57;;;;;;;3.47;2.00;;;;;;;19.41;22.87;101476.81;3532162;40;20414;-81
2021/06/01 00:29:26;;;;;;;3.13;1.80;;;;;;;19.40;22.92;101477.00;3541433;40;20027;-82
2021/06/01 00:31:54;;;;;;;2.67;1.55;;;;;;;19.35;22.42;101474.72;3541663;40;20035;-82
2021/06/01 00:34:22;;;;;;;3.15;1.90;;;;;;;19.32;22.27;101479.78;3540431;40;20380;-80
2021/06/01 00:36:50;;;;;;;2.45;1.52;;;;;;;19.28;22.69;101484.78;3541241;40;20068;-81
2021/06/01 00:39:18;;;;;;;2.95;1.70;;;;;;;19.26;22.27;101486.03;3524462;40;20027;-81
2021/06/01 00:41:46;;;;;;;2.97;1.98;;;;;;;19.22;22.93;101490.16;3532627;40;20424;-81
2021/06/01 00:44:14;;;;;;;2.80;1.60;;;;;;;19.19;22.29;101486.69;3541579;40;20035;-80
2021/06/01 00:46:43;;;;;;;2.88;1.85;;;;;;;19.17;22.29;101491.56;3541192;40;20063;-80
2021/06/01 00:49:11;;;;;;;3.20;1.60;;;;;;;19.11;22.90;101486.69;3541767;40;20288;-82
2021/06/01 00:51:38;;;;;;;2.95;1.60;;;;;;;19.09;22.61;101493.47;3541416;40;20059;-81
2021/06/01 00:54:06;;;;;;;4.32;1.65;;;;;;;19.06;22.83;101491.03;3540757;40;20033;-81
2021/06/01 00:56:34;;;;;;;3.17;1.60;;;;;;;19.03;22.40;101489.47;3541604;40;20071;-81
2021/06/01 00:59:02;;;;;;;3.00;1.70;;;;;;;19.01;22.46;101486.03;3541361;40;20091;-81
2021/06/01 01:01:30;;;;;;;2.13;1.40;;;;;;;18.99;22.62;101478.91;3532443;40;20035;-81
2021/06/01 01:04:00;;;;;;;2.88;1.60;;;;;;;18.98;22.84;101485.50;3541813;40;20043;-82
2021/06/01 01:06:40;;;;;;;2.45;1.55;;;;;;;18.97;23.00;101487.41;3532332;40;20035;-81
2021/06/01 01:09:11;;;;;;;2.95;1.75;;;;;;;18.94;22.58;101489.63;3524512;40;20061;-83
2021/06/01 01:11:54;;;;;;;3.03;1.80;;;;;;;18.95;22.90;101488.59;3541239;40;20392;-82
2021/06/01 01:14:26;;;;;;;2.72;1.70;;;;;;;18.89;22.71;101483.75;3541119;40;20660;-81
2021/06/01 01:16:59;;;;;;;2.50;1.60;;;;;;;18.88;22.96;101488.44;3541074;40;20030;-82
2021/06/01 01:20:06;;;;;;;2.95;1.65;;;;;;;18.79;22.74;101487.53;3540462;40;20037;-82
2021/06/01 01:22:36;;;;;;;3.55;1.60;;;;;;;18.81;23.10;101482.69;3519900;40;20036;-82
2021/06/01 01:25:12;;;;;;;2.75;1.70;;;;;;;18.83;23.08;101476.13;3537939;40;20038;-82
2021/06/01 01:27:53;;;;;;;2.72;1.70;;;;;;;18.81;22.76;101479.94;3548500;40;20031;-81
2021/06/01 01:30:24;;;;;;;2.63;1.60;;;;;;;18.78;22.82;101476.59;3532003;40;20046;-81
2021/06/01 01:33:10;;;;;;;2.67;1.45;;;;;;;18.77;22.76;101484.03;3541122;40;20031;-81
2021/06/01 01:35:40;;;;;;;2.50;1.60;;;;;;;18.71;22.67;101481.97;3541424;40;20133;-81
2021/06/01 01:38:10;;;;;;;2.75;1.60;;;;;;;18.70;22.83;101479.34;3532655;40;20035;-82
2021/06/01 01:40:40;;;;;;;2.92;1.55;;;;;;;18.69;22.86;101484.03;3541537;40;20042;-82
2021/06/01 01:43:14;;;;;;;2.80;1.60;;;;;;;18.65;22.66;101473.47;3541085;40;20039;-82
2021/06/01 01:45:47;;;;;;;2.63;1.77;;;;;;;18.64;23.27;101471.72;3541252;40;20475;-82
2021/06/01 01:51:15;;;;;;;2.95;1.75;;;;;;;18.60;22.75;101475.91;3541154;40;20023;-82
2021/06/01 01:53:49;;;;;;;2.83;1.60;;;;;;;18.60;23.10;101482.31;3541264;40;20180;-82
2021/06/01 01:56:19;;;;;;;2.40;1.48;;;;;;;18.57;23.28;101481.75;3541113;40;20027;-82
2021/06/01 01:58:49;;;;;;;2.95;1.70;;;;;;;18.57;22.88;101476.22;3532308;40;20384;-82
2021/06/01 02:01:17;;;;;;;3.78;1.80;;;;;;;18.56;23.54;101482.78;3532064;40;20058;-82
2021/06/01 02:03:47;;;;;;;2.78;1.70;;;;;;;18.55;23.40;101479.16;3531978;40;20071;-82
2021/06/01 02:06:15;;;;;;;2.70;1.48;;;;;;;18.52;23.52;101481.41;3532000;40;20038;-83
2021/06/01 02:08:46;;;;;;;2.17;1.50;;;;;;;18.49;23.55;101482.59;3541002;40;20059;-82
2021/06/01 02:11:14;;;;;;;2.65;1.77;;;;;;;18.48;23.30;101485.53;3531940;40;20035;-82
2021/06/01 02:13:44;;;;;;;2.10;1.50;;;;;;;18.47;23.27;101481.91;3540305;40;20034;-83
2021/06/01 02:16:12;;;;;;;4.50;1.60;;;;;;;18.43;23.63;101489.72;3540702;40;20041;-82
2021/06/01 02:18:40;;;;;;;3.65;1.67;;;;;;;18.42;23.40;101479.66;3540721;40;20026;-83
2021/06/01 02:21:20;;;;;;;2.38;1.40;;;;;;;18.42;23.28;101478.78;3531855;40;20031;-82
2021/06/01 02:23:57;;;;;;;2.90;1.77;;;;;;;18.39;23.64;101479.09;3531947;40;20038;-82
2021/06/01 02:26:37;;;;;;;2.80;1.70;;;;;;;18.37;23.56;101479.28;3540254;40;20043;-83
2021/06/01 02:29:12;;;;;;;3.08;1.60;;;;;;;18.33;23.82;101480.66;3531812;40;20035;-83
2021/06/01 02:31:45;;;;;;;3.30;2.10;;;;;;;18.31;23.66;101479.09;3540593;40;20471;-83
2021/06/01 02:34:14;;;;;;;2.90;1.65;;;;;;;18.27;23.48;101474.94;3541419;40;20027;-84
2021/06/01 02:36:45;;;;;;;3.33;1.65;;;;;;;18.26;23.55;101468.53;3540662;40;20098;-82
2021/06/01 02:39:15;;;;;;;2.70;1.60;;;;;;;18.23;23.93;101470.75;3540136;40;20039;-82
2021/06/01 02:41:44;;;;;;;3.58;1.77;;;;;;;18.20;23.81;101473.84;3540019;40;20051;-82
2021/06/01 02:44:14;;;;;;;2.90;1.67;;;;;;;18.17;23.53;101472.31;3531753;40;20035;-82
2021/06/01 02:46:42;;;;;;;2.70;1.70;;;;;;;18.13;23.52;101470.88;3539538;40;20296;-82
2021/06/01 02:49:10;;;;;;;3.30;1.90;;;;;;;18.10;24.23;101462.06;3540936;40;20031;-86
2021/06/01 02:51:39;;;;;;;2.53;1.73;;;;;;;18.07;24.00;101471.56;3531679;40;20039;-82
2021/06/01 02:54:21;;;;;;;2.85;1.90;;;;;;;18.05;24.27;101468.09;3541211;40;20062;-82
2021/06/01 02:56:51;;;;;;;3.80;1.77;;;;;;;17.99;24.02;101457.66;3541002;40;20033;-82
2021/06/01 02:59:20;;;;;;;2.28;1.50;;;;;;;17.94;24.28;101463.69;3532006;40;20130;-82
2021/06/01 03:01:49;;;;;;;3.40;1.70;;;;;;;17.92;23.84;101459.34;3542531;40;20038;-82
2021/06/01 03:04:16;;;;;;;3.47;1.73;;;;;;;17.88;23.99;101463.47;3542583;40;20061;-83
2021/06/01 03:06:45;;;;;;;3.15;1.85;;;;;;;17.84;24.25;101460.19;3542802;40;20053;-82
2021/06/01 03:09:13;;;;;;;2.78;1.58;;;;;;;17.81;24.02;101460.50;3541914;40;20328;-84
2021/06/01 03:11:44;;;;;;;2.92;1.90;;;;;;;17.79;24.86;101468.09;3525792;40;20034;-83
2021/06/01 03:14:12;;;;;;;2.63;1.70;;;;;;;17.75;24.85;101463.06;3533842;40;20376;-82
2021/06/01 03:16:40;;;;;;;2.80;1.60;;;;;;;17.73;24.41;101463.22;3533541;40;20304;-82
2021/06/01 03:19:08;;;;;;;2.95;1.90;;;;;;;17.68;24.87;101465.63;3542584;40;20055;-82
2021/06/01 03:21:37;;;;;;;3.30;2.08;;;;;;;17.63;24.97;101462.47;3542941;40;20034;-83
2021/06/01 03:24:06;;;;;;;3.25;1.98;;;;;;;17.59;24.65;101461.94;3533908;40;20128;-83
2021/06/01 03:26:33;;;;;;;4.50;2.30;;;;;;;17.53;25.19;101468.16;3537665;40;20079;-83
2021/06/01 03:29:03;;;;;;;3.17;1.85;;;;;;;17.51;25.33;101463.78;3542895;40;20121;-83
2021/06/01 03:31:32;;;;;;;3.28;2.05;;;;;;;17.43;25.33;101459.09;3542808;40;20361;-82
2021/06/01 03:34:00;;;;;;;2.72;1.80;;;;;;;17.38;25.55;101457.81;3541064;40;20038;-83
2021/06/01 03:36:27;;;;;;;2.80;1.63;;;;;;;17.31;25.03;101452.06;3542096;40;20047;-82
2021/06/01 03:39:02;;;;;;;4.47;2.00;;;;;;;17.28;25.44;101458.81;3542169;40;20136;-84
2021/06/01 03:41:31;;;;;;;3.22;1.92;;;;;;;17.24;25.46;101462.88;3542247;40;20027;-83
2021/06/01 03:43:59;;;;;;;4.90;2.40;;;;;;;17.19;25.72;101465.28;3533174;40;20043;-83
2021/06/01 03:46:29;;;;;;;3.72;2.08;;;;;;;17.19;25.40;101467.16;3533211;40;20335;-83
2021/06/01 03:49:00;;;;;;;4.20;2.10;;;;;;;17.19;25.72;101469.94;3533037;40;20031;-82
2021/06/01 03:51:28;;;;;;;4.25;2.20;;;;;;;17.15;25.14;101465.75;3524942;40;20462;-83
2021/06/01 03:53:56;;;;;;;4.18;2.35;;;;;;;17.14;25.96;101464.88;3533420;40;20363;-83
2021/06/01 03:56:23;;;;;;;3.58;2.10;;;;;;;17.13;25.42;101468.66;3542318;40;20023;-83
2021/06/01 03:58:52;;;;;;;3.50;1.73;;;;;;;17.11;25.74;101459.69;3533295;40;20034;-83
2021/06/01 04:01:20;;;;;;;3.28;2.13;;;;;;;17.11;25.48;101467.09;3541153;40;20027;-83
2021/06/01 04:03:51;;;;;;;4.00;1.98;;;;;;;17.12;26.09;101471.63;3530755;40;20044;-83
2021/06/01 04:06:22;;;;;;;3.20;1.90;;;;;;;17.08;25.46;101476.56;3531457;40;20095;-83
2021/06/01 04:08:50;;;;;;;3.10;2.00;;;;;;;17.09;25.39;101477.44;3531721;40;20047;-83
2021/06/01 04:11:17;;;;;;;4.07;2.08;;;;;;;17.07;26.19;101468.44;3531258;40;20041;-84
2021/06/01 04:13:48;;;;;;;4.38;2.45;;;;;;;17.09;26.28;101466.38;3531198;40;20122;-84
2021/06/01 04:16:16;;;;;;;4.78;2.78;;;;;;;17.04;26.37;101469.66;3531683;40;20106;-83
2021/06/01 04:18:46;;;;;;;3.45;2.20;;;;;;;17.03;26.37;101472.56;3531446;40;20050;-85
2021/06/01 04:21:16;;;;;;;3.67;2.33;;;;;;;17.01;25.71;101469.97;3523398;40;20126;-83
2021/06/01 04:23:47;;;;;;;3.17;2.08;;;;;;;16.98;25.84;101472.16;3515664;40;20658;-84
2021/06/01 04:26:15;;;;;;;3.85;2.20;;;;;;;16.98;26.01;101477.69;3523047;40;20377;-82
2021/06/01 04:29:03;;;;;;;2.95;2.10;;;;;;;16.96;26.23;101465.94;3530740;40;20542;-85
2021/06/01 04:31:51;;;;;;;4.05;2.20;;;;;;;16.97;25.94;101473.19;3530412;40;20028;-82
2021/06/01 04:34:38;;;;;;;4.15;1.98;;;;;;;16.96;26.45;101472.31;3524118;40;20752;-83
2021/06/01 04:37:27;;;;;;;3.50;2.22;;;;;;;16.98;26.10;101475.78;3531119;40;20040;-84
2021/06/01 04:40:17;;;;;;;3.22;1.92;;;;;;;16.99;26.62;101480.28;3531158;40;20075;-83
2021/06/01 04:43:08;;;;;;;3.10;2.00;;;;;;;17.00;26.55;101479.28;3542161;40;20049;-83
2021/06/01 04:45:56;;;;;;;3.10;1.90;;;;;;;16.98;25.87;101472.16;3542701;40;20035;-84
2021/06/01 04:48:43;;;;;;;3.58;2.00;;;;;;;16.98;26.30;101473.03;3534634;40;20094;-82
2021/06/01 04:51:31;;;;;;;3.13;1.85;;;;;;;16.99;26.71;101468.38;3540936;40;20047;-83
2021/06/01 04:54:20;;;;;;;3.17;1.75;;;;;;;17.01;26.54;101472.72;3541791;40;20067;-83
2021/06/01 04:57:08;;;;;;;4.55;2.05;;;;;;;17.03;26.47;101475.34;3541691;40;20483;-83
2021/06/01 04:59:56;;;;;;;3.47;1.92;;;;;;;17.05;26.96;101471.34;3545487;40;20033;-75
2021/06/01 05:02:43;;;;;;;3.42;1.92;;;;;;;17.08;26.68;101473.81;3544397;40;20042;-76
2021/06/01 05:05:31;;;;;;;4.15;2.15;;;;;;;17.13;27.03;101473.31;3549510;40;20046;-77
2021/06/01 05:08:19;;;;;;;3.20;2.00;;;;;;;17.19;27.09;101476.34;3540196;40;20043;-76
2021/06/01 05:11:08;;;;;;;3.78;2.22;;;;;;;17.30;27.45;101481.63;3555052;40;20044;-76
2021/06/01 05:13:56;;;;;;;3.60;2.15;;;;;;;17.42;27.53;101473.94;3556176;40;20041;-76
2021/06/01 05:16:23;;;;;;;3.10;2.03;;;;;;;17.55;27.11;101479.88;3540698;40;20363;-76
2021/06/01 05:18:51;;;;;;;3.90;1.90;;;;;;;17.69;27.54;101478.44;3547967;40;20443;-76
2021/06/01 05:21:19;;;;;;;2.85;1.90;;;;;;;17.82;27.10;101473.31;3549474;40;20094;-76
2021/06/01 05:23:47;;;;;;;4.15;2.10;;;;;;;17.96;27.37;101472.69;3543403;40;20038;-75
2021/06/01 05:26:16;;;;;;;2.90;2.00;;;;;;;18.15;27.08;101476.25;3532772;40;20043;-76
2021/06/01 05:28:44;;;;;;;3.28;1.98;;;;;;;18.28;26.56;101474.75;3546182;40;20377;-76
2021/06/01 05:31:17;;;;;;;3.55;2.40;;;;;;;18.43;26.81;101475.00;3536748;40;20027;-75
2021/06/01 05:33:49;;;;;;;4.13;2.22;;;;;;;18.59;26.97;101479.69;3546707;40;20069;-75
2021/06/01 05:36:16;;;;;;;3.40;2.20;;;;;;;18.73;26.94;101479.88;3549856;40;20078;-76
2021/06/01 05:38:44;;;;;;;3.78;1.92;;;;;;;18.86;26.20;101471.09;3549819;40;20304;-75
2021/06/01 05:41:13;;;;;;;4.43;2.30;;;;;;;19.00;26.35;101478.75;3548220;40;20035;-76
2021/06/01 05:43:42;;;;;;;3.72;2.38;;;;;;;19.12;26.40;101474.56;3538553;40;20394;-76
2021/06/01 05:46:11;;;;;;;3.35;2.20;;;;;;;19.22;26.31;101479.94;3548693;40;20038;-75
2021/06/01 05:48:39;;;;;;;3.05;2.00;;;;;;;19.30;25.82;101473.53;3549923;40;20041;-76
2021/06/01 05:51:07;;;;;;;3.08;1.88;;;;;;;19.39;25.81;101470.56;3540594;40;20042;-77
2021/06/01 05:53:35;;;;;;;3.00;1.80;;;;;;;19.47;25.71;101469.69;3540819;40;20035;-76
2021/06/01 05:56:08;;;;;;;3.70;2.00;;;;;;;19.58;25.83;101468.50;3547549;40;20038;-76
2021/06/01 05:58:36;;;;;;;4.07;2.20;;;;;;;19.60;25.95;101458.94;3540720;40;20481;-77
2021/06/01 06:01:05;;;;;;;5.10;2.20;;;;;;;19.71;25.81;101466.03;3536672;40;20121;-76
2021/06/01 06:03:33;;;;;;;3.08;2.00;;;;;;;19.74;25.29;101463.78;3540647;40;20065;-77
2021/06/01 06:06:04;;;;;;;3.70;1.90;;;;;;;19.82;25.69;101469.28;3549196;40;20265;-77
2021/06/01 06:08:38;;;;;;;2.90;1.90;;;;;;;19.90;25.54;101469.28;3538883;40;20406;-77
2021/06/01 06:11:07;;;;;;;2.88;1.92;;;;;;;19.93;25.15;101468.88;3548423;40;20050;-79
2021/06/01 06:13:35;;;;;;;6.28;2.25;;;;;;;20.02;25.15;101474.41;3544363;40;20047;-79
2021/06/01 06:16:05;;;;;;;3.45;1.83;;;;;;;20.09;25.58;101467.97;3548420;40;20121;-74
2021/06/01 06:18:37;;;;;;;3.10;1.85;;;;;;;20.17;25.31;101470.69;3548488;40;20436;-74
2021/06/01 06:21:06;;;;;;;4.50;2.22;;;;;;;20.19;25.03;101470.53;3538380;40;20149;-75
2021/06/01 06:23:40;;;;;;;3.75;2.00;;;;;;;20.28;24.81;101475.91;3547671;40;20058;-76
2021/06/01 06:26:10;;;;;;;3.80;2.00;;;;;;;20.36;25.04;101476.91;3546714;40;20062;-75
2021/06/01 06:28:38;;;;;;;2.70;1.88;;;;;;;20.42;25.49;101477.03;3548207;40;20086;-76
2021/06/01 06:31:08;;;;;;;3.20;1.70;;;;;;;20.50;25.21;101476.97;3544934;40;20086;-75
2021/06/01 06:33:38;;;;;;;3.17;1.83;;;;;;;20.58;25.19;101470.53;3538173;40;20132;-75
2021/06/01 06:36:06;;;;;;;3.95;1.95;;;;;;;20.62;25.09;101466.31;3537681;40;20062;-74
2021/06/01 06:38:34;;;;;;;2.90;1.73;;;;;;;20.69;25.24;101462.63;3544047;40;20058;-74
2021/06/01 06:41:10;;;;;;;3.85;2.00;;;;;;;20.76;25.16;101468.31;3547168;40;20058;-73
2021/06/01 06:43:39;;;;;;;4.15;1.77;;;;;;;20.84;24.60;101468.25;3547452;40;20065;-74
2021/06/01 06:46:12;;;;;;;4.50;2.00;;;;;;;20.92;24.61;101457.09;3547516;40;20400;-73
2021/06/01 06:48:40;;;;;;;4.07;1.70;;;;;;;20.98;24.78;101467.50;3531158;40;20046;-74
2021/06/01 06:51:13;;;;;;;3.13;1.80;;;;;;;21.05;24.96;101465.69;3547106;40;20060;-73
2021/06/01 06:53:50;;;;;;;2.78;1.80;;;;;;;21.13;24.39;101461.09;3546700;40;20088;-73
2021/06/01 06:56:22;;;;;;;3.03;1.80;;;;;;;21.22;24.79;101462.75;3547177;40;20056;-73
2021/06/01 06:58:50;;;;;;;3.60;1.80;;;;;;;21.31;24.58;101464.44;3545400;40;20050;-74
2021/06/01 07:01:20;;;;;;;3.10;1.88;;;;;;;21.40;24.34;101460.50;3537545;40;20046;-74
2021/06/01 07:03:48;;;;;;;3.13;1.73;;;;;;;21.45;24.36;101458.88;3538599;40;20045;-74
2021/06/01 07:06:17;;;;;;;2.58;1.77;;;;;;;21.54;24.45;101454.09;3546684;40;20046;-72
2021/06/01 07:08:45;;;;;;;4.18;1.98;;;;;;;21.61;24.42;101448.66;3536059;40;20058;-74
2021/06/01 07:11:13;;;;;;;3.10;1.98;;;;;;;21.68;24.00;101450.47;3545362;40;20072;-74
2021/06/01 07:13:51;;;;;;;2.88;1.70;;;;;;;21.81;24.14;101449.84;3546819;40;20051;-73
2021/06/01 07:16:20;;;;;;;3.35;1.63;;;;;;;21.87;24.35;101449.06;3546123;40;20105;-73
2021/06/01 07:18:48;;;;;;;3.17;1.92;;;;;;;21.96;23.60;101447.91;3529565;40;20418;-73
2021/06/01 07:21:16;;;;;;;3.35;2.17;;;;;;;22.05;23.79;101452.31;3545370;40;20035;-73
2021/06/01 07:23:44;;;;;;;3.53;1.75;;;;;;;22.14;24.09;101455.88;3536480;40;20140;-74
2021/06/01 07:26:12;;;;;;;3.50;1.80;;;;;;;22.24;23.65;101455.56;3546838;40;20038;-75
2021/06/01 07:28:40;;;;;;;3.10;1.80;;;;;;;22.33;23.51;101449.69;3539548;40;20054;-76
2021/06/01 07:31:13;;;;;;;3.72;1.75;;;;;;;22.43;23.00;101454.97;3546334;40;20132;-75
2021/06/01 07:33:45;;;;;;;3.10;1.60;;;;;;;22.53;23.27;101452.72;3545534;40;20063;-72
2021/06/01 07:36:14;;;;;;;3.47;1.70;;;;;;;22.60;23.13;101462.03;3545038;40;20046;-73
2021/06/01 07:38:42;;;;;;;2.80;1.70;;;;;;;22.68;23.27;101455.47;3546659;40;20105;-74
2021/06/01 07:41:10;;;;;;;3.33;1.98;;;;;;;22.76;22.85;101452.53;3547589;40;20168;-73
2021/06/01 07:43:38;;;;;;;3.45;2.15;;;;;;;22.85;22.83;101456.97;3546881;40;20322;-75
2021/06/01 07:46:06;;;;;;;3.53;1.67;;;;;;;22.95;23.30;101451.94;3548020;40;20054;-79
2021/06/01 07:48:36;;;;;;;2.50;1.80;;;;;;;23.04;23.00;101455.44;3538595;40;20408;-75
2021/06/01 07:51:10;;;;;;;2.90;1.80;;;;;;;23.15;22.74;101450.16;3546933;40;20053;-75
2021/06/01 07:53:39;;;;;;;3.58;2.00;;;;;;;23.23;22.33;101446.38;3546585;40;20086;-76
2021/06/01 07:56:08;;;;;;;3.65;1.88;;;;;;;23.33;22.76;101444.09;3547412;40;20073;-76
2021/06/01 07:58:36;;;;;;;3.13;1.85;;;;;;;23.43;22.85;101443.75;3547549;40;20089;-75
2021/06/01 08:01:03;;;;;;;2.88;1.70;;;;;;;23.52;22.76;101434.19;3549151;40;20054;-77
2021/06/01 08:03:31;;;;;;;2.95;1.90;;;;;;;23.60;22.39;101422.84;3546551;40;20047;-76
2021/06/01 08:06:00;;;;;;;2.80;1.60;;;;;;;23.70;22.61;101434.53;3548720;40;20031;-73
2021/06/01 08:08:29;;;;;;;2.10;1.63;;;;;;;23.82;22.25;101434.78;3546821;40;20042;-71
2021/06/01 08:10:58;;;;;;;2.80;1.70;;;;;;;23.88;21.82;101428.41;3547294;40;20054;-73
2021/06/01 08:13:27;;;;;;;2.42;1.50;;;;;;;23.97;22.13;101425.22;3548707;40;20057;-72
2021/06/01 08:15:56;;;;;;;2.50;1.60;;;;;;;24.05;22.26;101422.25;3547628;40;20050;-69
2021/06/01 08:18:32;;;;;;;2.60;1.80;;;;;;;24.14;21.79;101419.31;3547207;40;20389;-70
2021/06/01 08:21:06;;;;;;;3.00;2.05;;;;;;;24.20;22.14;101412.91;3545348;40;20050;-70
2021/06/01 08:23:35;;;;;;;3.22;1.70;;;;;;;24.32;21.68;101423.25;3548404;40;20039;-70
2021/06/01 08:26:04;;;;;;;2.35;1.70;;;;;;;24.38;21.38;101422.41;3546663;40;20272;-70
2021/06/01 08:28:33;;;;;;;3.05;1.63;;;;;;;24.46;21.55;101415.75;3547542;40;20062;-70
2021/06/01 08:31:01;;;;;;;4.28;1.80;;;;;;;24.54;21.54;101412.75;3547432;40;20416;-70
2021/06/01 08:33:29;;;;;;;2.80;1.70;;;;;;;24.62;21.28;101412.56;3543768;40;20050;-70
2021/06/01 08:35:58;;;;;;;3.13;1.67;;;;;;;24.68;21.20;101414.56;3546738;40;20085;-69
2021/06/01 08:38:25;;;;;;;2.50;1.67;;;;;;;24.77;21.12;101412.44;3545176;40;20130;-70
2021/06/01 08:40:55;;;;;;;3.10;1.60;;;;;;;24.88;20.77;101414.59;3548149;40;20062;-69
2021/06/01 08:43:26;;;;;;;2.47;1.70;;;;;;;24.96;21.04;101419.09;3546509;40;20104;-70
2021/06/01 08:45:56;;;;;;;2.00;1.58;;;;;;;25.02;20.38;101407.09;3547873;40;20054;-71
2021/06/01 08:48:24;;;;;;;2.45;1.70;;;;;;;25.07;20.75;101402.56;3540659;40;20113;-70
2021/06/01 08:50:54;;;;;;;2.80;1.80;;;;;;;25.13;20.36;101407.28;3544865;40;20048;-69
2021/06/01 08:53:22;;;;;;;2.85;1.48;;;;;;;25.19;19.98;101411.19;3538783;40;20431;-71
2021/06/01 08:55:50;;;;;;;2.20;1.58;;;;;;;25.23;19.95;101409.66;3541958;40;20068;-70
2021/06/01 08:58:21;;;;;;;2.78;1.70;;;;;;;25.30;19.50;101404.06;3538938;40;20047;-69
2021/06/01 09:00:50;;;;;;;2.10;1.45;;;;;;;25.33;19.97;101393.31;3547080;40;20295;-69
2021/06/01 09:03:22;;;;;;;3.72;1.65;;;;;;;25.41;19.53;101395.88;3548530;40;20027;-69
2021/06/01 09:06:06;;;;;;;3.10;1.65;;;;;;;25.45;18.99;101391.56;3546612;40;20046;-69
2021/06/01 09:08:39;;;;;;;2.35;1.52;;;;;;;25.49;18.89;101381.66;3545811;40;20129;-70
2021/06/01 09:11:13;;;;;;;2.70;1.60;;;;;;;25.50;18.93;101383.38;3538297;40;20093;-69
2021/06/01 09:22:03;;;;;;;2.53;1.55;;;;;;;25.63;19.34;101373.19;3547537;40;20050;-72
2021/06/01 09:24:31;;;;;;;1.77;1.40;;;;;;;25.69;18.79;101373.19;3536205;40;20066;-69
2021/06/01 09:27:03;;;;;;;2.30;1.70;;;;;;;25.71;19.07;101368.22;3547597;40;20635;-70
2021/06/01 09:29:34;;;;;;;1.88;1.45;;;;;;;25.77;18.19;101372.94;3548252;40;20046;-69
2021/06/01 09:32:07;;;;;;;2.47;1.60;;;;;;;25.81;18.10;101368.66;3545375;40;20388;-69
2021/06/01 09:34:44;;;;;;;2.55;1.50;;;;;;;25.85;17.70;101367.16;3543167;40;20082;-69
2021/06/01 09:37:21;;;;;;;2.40;1.60;;;;;;;25.88;17.83;101357.41;3548674;40;20054;-69
2021/06/01 09:40:12;;;;;;;2.30;1.58;;;;;;;25.88;17.63;101366.69;3539375;40;20058;-69
2021/06/01 09:42:42;;;;;;;2.40;1.50;;;;;;;25.91;18.08;101366.25;3542680;40;20058;-69
2021/06/01 09:45:24;;;;;;;2.28;1.27;;;;;;;25.94;18.04;101363.00;3547088;40;20395;-70
2021/06/01 09:48:17;;;;;;;2.60;1.40;;;;;;;25.92;17.86;101355.91;3546311;40;20050;-69
2021/06/01 09:50:50;;;;;;;2.40;1.58;;;;;;;25.95;17.44;101347.03;3538261;40;20311;-70
2021/06/01 09:53:25;;;;;;;2.17;1.50;;;;;;;25.98;17.79;101352.22;3538311;40;20046;-69
2021/06/01 09:56:00;;;;;;;2.42;1.60;;;;;;;26.01;17.58;101348.09;3547866;40;20054;-67
2021/06/01 09:58:30;;;;;;;2.90;1.70;;;;;;;26.04;17.64;101339.22;3544407;40;20392;-69
2021/06/01 10:01:05;;;;;;;2.42;1.40;;;;;;;26.09;17.28;101339.44;3547327;40;20054;-69
2021/06/01 10:03:40;;;;;;;2.45;1.63;;;;;;;26.11;17.66;101351.28;3546105;40;20047;-71
2021/06/01 10:06:08;;;;;;;2.40;1.50;;;;;;;26.13;17.66;101335.94;3547600;40;20061;-69
2021/06/01 10:08:42;;;;;;;1.90;1.40;;;;;;;26.20;16.89;101345.19;3536986;40;20336;-69
2021/06/01 10:11:11;;;;;;;3.03;1.50;;;;;;;26.21;17.49;101337.63;3542733;40;20391;-69
2021/06/01 10:13:41;;;;;;;2.65;1.63;;;;;;;26.25;17.17;101327.69;3546555;40;20787;-70
2021/06/01 10:16:13;;;;;;;2.83;1.65;;;;;;;26.29;17.19;101331.75;3545894;40;20054;-68
2021/06/01 10:18:42;;;;;;;3.20;1.65;;;;;;;26.28;17.58;101319.69;3547704;40;20050;-69
2021/06/01 10:21:12;;;;;;;3.40;1.80;;;;;;;26.36;17.51;101315.75;3547863;40;20069;-68
2021/06/01 10:23:43;;;;;;;2.92;1.63;;;;;;;26.40;17.43;101313.38;3546686;40;20058;-69
2021/06/01 10:26:12;;;;;;;2.00;1.50;;;;;;;26.47;17.03;101314.19;3547783;40;20061;-69
2021/06/01 10:28:45;;;;;;;2.55;1.52;;;;;;;26.53;17.11;101316.94;3535104;40;20404;-69
2021/06/01 10:31:32;;;;;;;3.33;1.50;;;;;;;26.57;17.15;101315.44;3546962;40;20054;-69
2021/06/01 10:34:01;;;;;;;2.63;1.50;;;;;;;26.63;17.36;101306.09;3547226;40;20061;-69
2021/06/01 10:50:55;;;;;;;2.42;1.58;;;;;;;27.03;16.77;101297.34;3627434;39;20433;-67
2021/06/01 10:53:25;;;;;;;2.72;1.50;;;;;;;27.04;16.94;101290.63;3626758;39;20035;-67
2021/06/01 10:56:04;;;;;;;2.22;1.48;;;;;;;27.13;16.20;101288.41;3617140;39;20105;-68
2021/06/01 10:59:12;;;;;;;2.50;1.73;;;;;;;27.14;16.25;101282.56;3621098;39;20084;-67
2021/06/01 11:01:58;;;;;;;2.80;1.40;;;;;;;27.16;16.42;101283.19;3617711;39;20035;-67
2021/06/01 11:04:36;;;;;;;2.72;1.63;;;;;;;27.18;16.31;101283.78;3615840;39;20023;-69
2021/06/01 11:09:54;;;;;;;2.78;1.67;;;;;;;27.23;16.50;101271.88;3616260;39;20024;-68
2021/06/01 11:12:49;;;;;;;2.42;1.58;;;;;;;27.25;16.21;101267.75;3616069;39;20088;-67
2021/06/01 11:15:39;;;;;;;2.28;1.52;;;;;;;27.25;16.02;101259.31;3616483;39;20038;-68
2021/06/01 11:18:27;;;;;;;2.45;1.50;;;;;;;27.31;16.40;101257.53;3616640;39;20035;-68
2021/06/01 11:21:10;;;;;;;2.65;1.70;;;;;;;27.32;15.87;101262.03;3617534;39;20051;-69
2021/06/01 11:35:59;;;;;;;2.75;1.55;;;;;;;27.35;16.17;101244.69;3618681;39;20050;-68
2021/06/01 11:38:37;;;;;;;2.92;1.38;;;;;;;27.40;15.73;101245.75;3626474;39;20075;-68
2021/06/01 11:43:56;;;;;;;3.00;1.45;;;;;;;27.39;16.17;101232.78;3626282;39;20072;-69
2021/06/01 11:46:29;;;;;;;1.95;1.50;;;;;;;27.46;15.88;101232.72;3626667;39;20087;-68
2021/06/01 11:51:46;;;;;;;2.05;1.33;;;;;;;27.52;16.09;101223.34;3626545;39;20046;-68
2021/06/01 11:54:16;;;;;;;2.30;1.25;;;;;;;27.57;16.05;101220.69;3625320;39;20403;-68
2021/06/01 11:56:54;;;;;;;2.50;1.50;;;;;;;27.65;15.73;101219.50;3626225;39;20065;-68
2021/06/01 12:02:22;;;;;;;2.47;1.70;;;;;;;27.70;15.91;101223.31;3619582;39;20035;-68
2021/06/01 12:13:34;;;;;;;1.80;1.40;;;;;;;27.87;15.54;101194.53;3619367;39;20032;-68
2021/06/01 12:18:53;;;;;;;2.70;1.48;;;;;;;27.93;15.38;101197.25;3619317;39;20104;-66
2021/06/01 12:21:23;;;;;;;2.55;1.40;;;;;;;27.94;15.32;101201.78;3619176;39;20038;-68
2021/06/01 12:23:58;;;;;;;3.40;1.50;;;;;;;27.94;15.05;101200.91;3619265;39;20046;-68
2021/06/01 12:26:31;;;;;;;2.38;1.50;;;;;;;27.93;15.34;101200.06;3618948;39;20360;-67
2021/06/01 12:32:03;;;;;;;2.00;1.30;;;;;;;27.95;15.28;101175.38;3619595;39;20039;-67
2021/06/01 12:34:48;;;;;;;2.50;1.50;;;;;;;27.98;14.63;101172.09;3619626;39;20035;-67
2021/06/01 12:43:10;;;;;;;2.05;1.40;;;;;;;27.94;15.39;101168.03;3615893;39;20031;-67
2021/06/01 13:20:58;;;;;;;2.75;1.50;;;;;;;28.06;15.03;101118.34;3619043;39;19939;-67
2021/06/01 13:32:12;;;;;;;2.03;1.30;;;;;;;28.08;14.70;101102.06;3619068;39;20398;-67
2021/06/01 13:38:05;;;;;;;2.40;1.50;;;;;;;28.05;14.75;101102.56;3618410;39;20035;-67
2021/06/01 13:40:39;;;;;;;2.33;1.30;;;;;;;28.04;14.77;101094.38;3619141;39;20461;-67
2021/06/01 13:46:11;;;;;;;2.20;1.40;;;;;;;28.05;14.90;101088.50;3619065;39;20035;-67
2021/06/01 13:49:00;;;;;;;2.10;1.40;;;;;;;28.04;14.89;101092.41;3619023;39;20333;-67